createdAt,value
2023-06-09T00:00:00.705Z,3.20
2023-06-09T00:03:43.185Z,2.63
2023-06-09T00:07:28.166Z,4.00
2023-06-09T00:11:10.513Z,1.73
2023-06-09T00:14:52.319Z,2.90
2023-06-09T00:18:35.867Z,2.40
2023-06-09T00:22:18.566Z,2.77
2023-06-09T00:26:00.510Z,2.60
2023-06-09T00:29:42.306Z,2.80
2023-06-09T00:33:24.067Z,4.70
2023-06-09T00:37:06.414Z,2.83
2023-06-09T00:40:50.433Z,3.37
2023-06-09T00:44:32.211Z,2.67
2023-06-09T00:48:14.914Z,1.80
2023-06-09T00:51:58.359Z,2.63
2023-06-09T00:55:42.085Z,2.90
2023-06-09T00:59:24.197Z,1.73
2023-06-09T01:03:07.070Z,1.97
2023-06-09T01:07:01.488Z,2.37
2023-06-09T01:11:08.714Z,2.53
2023-06-09T01:15:12.403Z,2.90
2023-06-09T01:18:55.172Z,2.50
2023-06-09T01:23:10.207Z,2.50
2023-06-09T01:26:53.206Z,2.63
2023-06-09T01:30:37.826Z,1.83
2023-06-09T01:34:20.602Z,3.30
2023-06-09T01:38:03.565Z,2.10
2023-06-09T01:41:45.738Z,1.90
2023-06-09T01:45:27.632Z,2.63
2023-06-09T01:49:18.972Z,2.50
2023-06-09T01:53:08.872Z,2.07
2023-06-09T02:00:39.939Z,1.93
2023-06-09T02:04:25.094Z,2.60
2023-06-09T02:08:09.708Z,2.47
2023-06-09T02:11:54.613Z,1.67
2023-06-09T02:15:36.430Z,1.60
2023-06-09T02:19:20.105Z,1.87
2023-06-09T02:23:01.915Z,1.83
2023-06-09T02:26:43.722Z,1.83
2023-06-09T02:30:25.598Z,2.30
2023-06-09T02:34:07.401Z,3.03
2023-06-09T02:37:49.329Z,1.77
2023-06-09T02:41:31.106Z,2.40
2023-06-09T02:45:13.467Z,1.73
2023-06-09T02:48:55.447Z,2.00
2023-06-09T02:52:37.425Z,1.37
2023-06-09T02:56:19.702Z,1.70
2023-06-09T03:00:01.828Z,2.97
2023-06-09T03:03:43.626Z,3.77
2023-06-09T03:07:25.623Z,1.73
2023-06-09T03:11:07.459Z,1.80
2023-06-09T03:14:49.676Z,4.87
2023-06-09T03:18:31.792Z,3.03
2023-06-09T03:22:13.786Z,1.20
2023-06-09T03:25:55.640Z,1.90
2023-06-09T03:29:37.477Z,2.43
2023-06-09T03:33:22.333Z,2.23
2023-06-09T03:37:05.772Z,2.27
2023-06-09T03:40:47.678Z,2.40
2023-06-09T03:44:29.616Z,2.40
2023-06-09T03:48:13.830Z,2.37
2023-06-09T03:51:55.779Z,13.30
2023-06-09T03:55:39.605Z,12.90
2023-06-09T03:59:21.647Z,10.10
2023-06-09T04:03:03.472Z,5.77
2023-06-09T04:06:47.320Z,5.63
2023-06-09T04:10:31.446Z,4.23
2023-06-09T04:14:13.301Z,8.33
2023-06-09T04:17:55.210Z,10.90
2023-06-09T04:21:39.271Z,3.87
2023-06-09T04:25:26.826Z,5.47
2023-06-09T04:29:12.021Z,3.97
2023-06-09T04:33:03.141Z,6.63
2023-06-09T04:36:46.370Z,3.40
2023-06-09T04:40:30.662Z,3.77
2023-06-09T04:44:12.451Z,3.50
2023-06-09T04:47:58.831Z,5.63
2023-06-09T04:51:48.689Z,3.50
2023-06-09T04:59:13.432Z,3.97
2023-06-09T05:02:58.284Z,4.47
2023-06-09T05:06:41.084Z,3.67
2023-06-09T05:10:23.024Z,6.07
2023-06-09T05:14:08.946Z,7.83
2023-06-09T05:17:51.391Z,8.03
2023-06-09T05:21:33.213Z,7.70
2023-06-09T05:25:17.764Z,4.73
2023-06-09T05:29:00.079Z,5.37
2023-06-09T05:32:42.038Z,4.87
2023-06-09T05:36:23.998Z,4.83
2023-06-09T05:40:06.886Z,10.77
2023-06-09T05:43:49.014Z,12.07
2023-06-09T05:47:31.776Z,8.43
2023-06-09T05:51:13.850Z,8.20
2023-06-09T05:54:56.263Z,7.57
2023-06-09T05:58:38.846Z,5.20
2023-06-09T06:02:20.674Z,10.10
2023-06-09T06:06:02.480Z,7.97
2023-06-09T06:09:44.265Z,8.57
2023-06-09T06:13:26.090Z,6.70
2023-06-09T06:17:08.053Z,4.60
2023-06-09T06:20:49.822Z,3.90
2023-06-09T06:24:31.640Z,4.20
2023-06-09T06:28:13.430Z,2.90
2023-06-09T06:31:55.353Z,5.47
2023-06-09T06:35:37.308Z,4.47
2023-06-09T06:39:19.159Z,4.43
2023-06-09T06:43:00.993Z,3.30
2023-06-09T06:46:42.819Z,3.20
2023-06-09T06:50:26.261Z,4.63
2023-06-09T06:54:08.754Z,3.70
2023-06-09T06:57:51.043Z,4.37
2023-06-09T07:01:33.735Z,3.90
2023-06-09T07:05:17.053Z,4.63
2023-06-09T07:09:00.084Z,3.37
2023-06-09T07:12:43.029Z,3.90
2023-06-09T07:16:24.881Z,2.63
2023-06-09T07:20:07.689Z,3.47
2023-06-09T07:23:49.795Z,2.70
2023-06-09T07:27:31.591Z,4.17
2023-06-09T07:31:13.368Z,4.40
2023-06-09T07:34:56.503Z,5.40
2023-06-09T07:38:43.656Z,3.17
2023-06-09T07:42:25.703Z,3.70
2023-06-09T07:46:08.504Z,3.67
2023-06-09T07:49:50.354Z,2.60
2023-06-09T07:53:32.172Z,2.97
2023-06-09T07:57:14.093Z,3.80
2023-06-09T08:00:55.921Z,7.87
2023-06-09T08:04:38.314Z,8.50
2023-06-09T08:08:20.221Z,9.50
2023-06-09T08:12:02.024Z,9.03
2023-06-09T08:15:45.438Z,6.60
2023-06-09T08:19:29.746Z,11.23
2023-06-09T08:23:11.596Z,8.73
2023-06-09T08:26:53.494Z,8.67
2023-06-09T08:30:35.659Z,6.47
2023-06-09T08:34:17.528Z,10.50
2023-06-09T08:37:59.819Z,9.83
2023-06-09T08:41:48.571Z,8.10
2023-06-09T08:45:34.388Z,12.63
2023-06-09T08:49:17.772Z,8.23
2023-06-09T08:53:01.535Z,8.83
2023-06-09T08:56:43.446Z,7.23
2023-06-09T09:00:25.941Z,10.17
2023-06-09T09:04:07.854Z,8.87
2023-06-09T09:07:51.007Z,8.23
2023-06-09T09:11:33.186Z,8.20
2023-06-09T09:15:15.072Z,8.83
2023-06-09T09:18:56.982Z,8.37
2023-06-09T09:22:46.092Z,8.33
2023-06-09T09:26:29.943Z,7.97
2023-06-09T09:30:13.011Z,6.00
2023-06-09T09:33:54.968Z,4.70
2023-06-09T09:37:36.848Z,7.33
2023-06-09T09:41:18.712Z,6.77
2023-06-09T09:45:05.342Z,5.40
2023-06-09T09:48:48.787Z,4.70
2023-06-09T09:52:34.420Z,8.27
2023-06-09T09:56:25.008Z,6.23
2023-06-09T10:00:12.756Z,6.13
2023-06-09T10:03:58.039Z,5.40
2023-06-09T10:07:43.822Z,5.37
2023-06-09T10:11:30.899Z,6.83
2023-06-09T10:15:14.413Z,6.60
2023-06-09T10:18:59.166Z,4.53
2023-06-09T10:22:41.650Z,4.57
2023-06-09T10:26:24.800Z,3.57
2023-06-09T10:30:08.935Z,5.10
2023-06-09T10:33:54.202Z,3.77
2023-06-09T10:37:37.004Z,4.57
2023-06-09T10:41:29.809Z,4.10
2023-06-09T10:45:15.585Z,4.07
2023-06-09T10:48:57.447Z,4.73
2023-06-09T10:52:41.970Z,3.40
2023-06-09T10:56:54.616Z,5.10
2023-06-09T11:01:05.212Z,3.20
2023-06-09T11:04:50.377Z,3.53
2023-06-09T11:09:02.090Z,3.97
2023-06-09T11:12:45.946Z,2.67
2023-06-09T11:16:47.708Z,5.70
2023-06-09T11:20:33.856Z,5.03
2023-06-09T11:24:15.938Z,2.80
2023-06-09T11:28:01.054Z,4.20
2023-06-09T11:31:49.598Z,3.87
2023-06-09T11:35:31.982Z,3.27
2023-06-09T11:39:17.354Z,3.33
2023-06-09T11:43:00.279Z,4.23
2023-06-09T11:46:42.165Z,4.10
2023-06-09T11:50:25.792Z,3.40
2023-06-09T11:54:07.962Z,4.47
2023-06-09T11:57:49.789Z,4.80
2023-06-09T12:01:32.572Z,5.07
2023-06-09T12:05:15.403Z,3.87
2023-06-09T12:09:19.160Z,3.87
2023-06-09T12:13:01.647Z,3.27
2023-06-09T12:16:43.454Z,3.27
2023-06-09T12:20:36.425Z,3.17
2023-06-09T12:24:19.833Z,4.13
2023-06-09T12:28:22.786Z,3.37
2023-06-09T12:32:05.829Z,3.47
2023-06-09T12:35:50.326Z,2.87
2023-06-09T12:39:34.311Z,3.00
2023-06-09T12:43:18.418Z,3.10
2023-06-09T12:47:00.233Z,3.17
2023-06-09T12:50:43.435Z,3.17
2023-06-09T12:54:28.049Z,4.87
2023-06-09T12:58:11.569Z,3.40
2023-06-09T13:01:54.624Z,3.43
2023-06-09T13:05:36.641Z,2.93
2023-06-09T13:09:19.390Z,2.90
2023-06-09T13:13:01.383Z,2.53
2023-06-09T13:16:43.429Z,2.73
2023-06-09T13:20:25.345Z,2.97
2023-06-09T13:24:07.533Z,2.97
2023-06-09T13:27:49.449Z,3.40
2023-06-09T13:31:31.427Z,3.23
2023-06-09T13:35:15.351Z,3.53
2023-06-09T13:38:57.235Z,4.13
2023-06-09T13:42:41.887Z,2.80
2023-06-09T13:46:24.088Z,5.00
2023-06-09T13:50:06.523Z,2.70
2023-06-09T13:53:48.479Z,3.80
2023-06-09T13:57:30.462Z,3.57
2023-06-09T14:01:12.384Z,4.73
2023-06-09T14:04:55.182Z,5.97
2023-06-09T14:08:37.062Z,5.83
2023-06-09T14:12:18.866Z,3.53
2023-06-09T14:16:00.664Z,4.50
2023-06-09T14:19:42.578Z,4.17
2023-06-09T14:23:24.385Z,4.03
2023-06-09T14:27:07.082Z,4.17
2023-06-09T14:30:48.990Z,5.60
2023-06-09T14:34:31.876Z,7.33
2023-06-09T14:38:13.751Z,6.13
2023-06-09T14:41:55.604Z,3.47
2023-06-09T14:45:37.676Z,2.90
2023-06-09T14:49:20.057Z,3.87
2023-06-09T14:53:03.757Z,4.72
2023-06-09T14:56:46.024Z,6.65
2023-06-09T15:00:28.773Z,4.90
2023-06-09T15:04:10.747Z,3.20
2023-06-09T15:07:57.612Z,4.85
2023-06-09T15:11:40.445Z,4.68
2023-06-09T15:15:24.975Z,4.50
2023-06-09T15:19:06.965Z,3.07
2023-06-09T15:22:49.050Z,6.30
2023-06-09T15:26:30.844Z,3.57
2023-06-09T15:30:13.287Z,4.05
2023-06-09T15:33:55.092Z,3.90
2023-06-09T15:37:36.885Z,3.73
2023-06-09T15:41:18.729Z,4.00
2023-06-09T15:45:00.762Z,4.47
2023-06-09T15:48:42.659Z,4.38
2023-06-09T15:52:24.487Z,3.40
2023-06-09T15:56:06.408Z,3.63
2023-06-09T15:59:48.206Z,3.90
2023-06-09T16:03:31.707Z,3.97
2023-06-09T16:07:14.890Z,3.10
2023-06-09T16:10:56.816Z,5.10
2023-06-09T16:14:38.666Z,5.13
2023-06-09T16:18:22.954Z,3.90
2023-06-09T16:22:05.190Z,4.50
2023-06-09T16:25:47.057Z,5.18
2023-06-09T16:29:28.857Z,6.80
2023-06-09T16:33:11.466Z,6.22
2023-06-09T16:36:53.518Z,7.13
2023-06-09T16:40:35.664Z,7.70
2023-06-09T16:44:18.654Z,5.13
2023-06-09T16:48:01.111Z,7.95
2023-06-09T16:51:43.071Z,4.80
2023-06-09T16:55:26.212Z,5.75
2023-06-09T16:59:08.039Z,6.75
2023-06-09T17:02:51.423Z,5.78
2023-06-09T17:06:34.711Z,6.65
2023-06-09T17:10:16.566Z,7.20
2023-06-09T17:13:58.383Z,14.75
2023-06-09T17:17:40.240Z,9.45
2023-06-09T17:21:22.062Z,8.70
2023-06-09T17:25:04.070Z,12.23
2023-06-09T17:28:46.277Z,10.82
2023-06-09T17:32:28.306Z,6.90
2023-06-09T17:36:10.423Z,7.38
2023-06-09T17:39:52.214Z,10.05
2023-06-09T17:43:34.008Z,11.68
2023-06-09T17:47:15.979Z,11.43
2023-06-09T17:50:57.913Z,7.95
2023-06-09T17:54:39.760Z,12.75
2023-06-09T17:58:21.616Z,12.50
2023-06-09T18:02:03.678Z,9.40
2023-06-09T18:05:45.605Z,10.55
2023-06-09T18:09:27.670Z,9.77
2023-06-09T18:13:09.667Z,8.35
2023-06-09T18:16:51.723Z,7.80
2023-06-09T18:20:33.665Z,7.85
2023-06-09T18:24:15.846Z,8.15
2023-06-09T18:28:00.169Z,6.63
2023-06-09T18:31:43.900Z,8.68
2023-06-09T18:35:25.848Z,10.15
2023-06-09T18:39:08.142Z,6.90
2023-06-09T18:42:50.221Z,9.23
2023-06-09T18:46:32.436Z,9.82
2023-06-09T18:50:14.769Z,6.90
2023-06-09T18:53:56.908Z,9.55
2023-06-09T18:57:40.374Z,6.20
2023-06-09T19:01:23.085Z,9.35
2023-06-09T19:05:05.691Z,5.97
2023-06-09T19:08:48.106Z,8.90
2023-06-09T19:12:30.222Z,8.80
2023-06-09T19:16:12.191Z,6.82
2023-06-09T19:19:54.070Z,8.07
2023-06-09T19:23:36.044Z,6.10
2023-06-09T19:27:17.938Z,5.28
2023-06-09T19:31:00.458Z,7.70
2023-06-09T19:34:42.365Z,9.32
2023-06-09T19:38:24.182Z,5.03
2023-06-09T19:42:06.542Z,8.75
2023-06-09T19:45:48.423Z,9.52
2023-06-09T19:49:30.687Z,5.55
2023-06-09T19:53:12.618Z,6.32
2023-06-09T19:56:54.498Z,7.60
2023-06-09T20:00:36.414Z,8.65
2023-06-09T20:04:18.489Z,8.27
2023-06-09T20:08:00.303Z,10.38
2023-06-09T20:11:42.246Z,7.35
2023-06-09T20:15:24.587Z,6.82
2023-06-09T20:19:07.178Z,8.38
2023-06-09T20:22:49.107Z,8.15
2023-06-09T20:26:31.547Z,11.75
2023-06-09T20:30:14.030Z,15.43
2023-06-09T20:33:57.793Z,8.85
2023-06-09T20:37:39.617Z,8.73
2023-06-09T20:41:21.851Z,9.65
2023-06-09T20:45:04.218Z,6.78
2023-06-09T20:48:46.152Z,8.77
2023-06-09T20:52:29.141Z,10.13
2023-06-09T20:56:11.951Z,8.85
2023-06-09T20:59:53.799Z,8.43
2023-06-09T21:03:38.819Z,8.00
2023-06-09T21:07:21.083Z,11.57
2023-06-09T21:11:03.159Z,15.75
2023-06-09T21:14:45.164Z,9.02
2023-06-09T21:18:26.958Z,6.32
2023-06-09T21:22:08.814Z,4.38
2023-06-09T21:25:50.704Z,3.83
2023-06-09T21:29:32.515Z,4.95
2023-06-09T21:33:14.368Z,2.50
2023-06-09T21:36:56.708Z,2.53
2023-06-09T21:40:38.517Z,2.72
2023-06-09T21:44:20.422Z,4.07
2023-06-09T21:48:03.233Z,3.50
2023-06-09T21:51:45.109Z,3.38
2023-06-09T21:55:26.953Z,3.03
2023-06-09T21:59:08.751Z,3.47
2023-06-09T22:02:50.762Z,2.65
2023-06-09T22:06:32.588Z,2.65
2023-06-09T22:10:14.388Z,2.13
2023-06-09T22:13:56.183Z,2.65
2023-06-09T22:17:39.867Z,3.58
2023-06-09T22:21:22.248Z,2.67
2023-06-09T22:25:04.570Z,1.90
2023-06-09T22:28:47.004Z,4.13
2023-06-09T22:32:28.832Z,2.70
2023-06-09T22:36:10.633Z,5.80
2023-06-09T22:39:53.601Z,3.85
2023-06-09T22:43:35.669Z,2.05
2023-06-09T22:47:17.653Z,1.48
2023-06-09T22:51:00.375Z,3.95
2023-06-09T22:54:42.267Z,3.17
2023-06-09T22:58:24.529Z,3.63
2023-06-09T23:02:06.529Z,3.60
2023-06-09T23:05:51.789Z,2.00
2023-06-09T23:09:33.619Z,2.03
2023-06-09T23:13:15.407Z,1.65
2023-06-09T23:16:57.268Z,2.00
2023-06-09T23:20:42.197Z,1.95
2023-06-09T23:24:25.772Z,2.17
2023-06-09T23:28:07.804Z,2.42
2023-06-09T23:31:49.625Z,2.72
2023-06-09T23:35:35.062Z,2.58
2023-06-09T23:39:17.042Z,2.30
2023-06-09T23:42:58.957Z,2.20
2023-06-09T23:46:40.792Z,2.97
2023-06-09T23:50:22.797Z,3.67
2023-06-09T23:54:04.772Z,2.63
2023-06-09T23:57:46.664Z,3.65
